createdAt,value
2019-01-18T00:00:45.681Z,20.00
2019-01-18T00:01:45.702Z,24.00
2019-01-18T00:02:45.656Z,24.00
2019-01-18T00:03:45.649Z,16.00
2019-01-18T00:04:45.636Z,20.00
2019-01-18T00:05:45.625Z,24.00
2019-01-18T00:06:45.616Z,72.00
2019-01-18T00:07:45.650Z,20.00
2019-01-18T00:08:45.594Z,28.00
2019-01-18T00:09:45.584Z,48.00
2019-01-18T00:10:45.571Z,24.00
2019-01-18T00:11:45.564Z,36.00
2019-01-18T00:12:45.559Z,24.00
2019-01-18T00:13:45.578Z,20.00
2019-01-18T00:14:45.531Z,20.00
2019-01-18T00:15:45.522Z,20.00
2019-01-18T00:16:45.510Z,20.00
2019-01-18T00:17:45.502Z,20.00
2019-01-18T00:18:45.493Z,20.00
2019-01-18T00:19:45.692Z,20.00
2019-01-18T00:20:45.472Z,20.00
2019-01-18T00:21:45.466Z,20.00
2019-01-18T00:22:45.456Z,20.00
2019-01-18T00:23:45.450Z,16.00
2019-01-18T00:24:45.433Z,20.00
2019-01-18T00:25:45.462Z,48.00
2019-01-18T00:26:45.414Z,48.00
2019-01-18T00:27:45.405Z,28.00
2019-01-18T00:28:45.387Z,20.00
2019-01-18T00:29:45.387Z,16.00
2019-01-18T00:30:56.310Z,16.00
2019-01-18T00:31:45.374Z,16.00
2019-01-18T00:32:45.351Z,16.00
2019-01-18T00:33:45.338Z,16.00
2019-01-18T00:34:45.339Z,20.00
2019-01-18T00:35:45.342Z,16.00
2019-01-18T00:36:45.348Z,16.00
2019-01-18T00:37:45.303Z,16.00
2019-01-18T00:38:45.306Z,16.00
2019-01-18T00:39:45.283Z,16.00
2019-01-18T00:40:45.272Z,16.00
2019-01-18T00:41:45.279Z,16.00
2019-01-18T00:42:45.296Z,16.00
2019-01-18T00:43:45.241Z,16.00
2019-01-18T00:44:45.233Z,16.00
2019-01-18T00:45:45.219Z,16.00
2019-01-18T00:46:45.238Z,16.00
2019-01-18T00:47:45.204Z,16.00
2019-01-18T00:48:45.226Z,16.00
2019-01-18T00:49:45.176Z,16.00
2019-01-18T00:50:45.215Z,16.00
2019-01-18T00:51:45.160Z,16.00
2019-01-18T00:52:45.167Z,16.00
2019-01-18T00:53:45.140Z,16.00
2019-01-18T00:54:45.148Z,16.00
2019-01-18T00:55:45.122Z,16.00
2019-01-18T00:56:45.106Z,16.00
2019-01-18T00:57:45.101Z,16.00
2019-01-18T00:58:45.109Z,16.00
2019-01-18T00:59:45.081Z,16.00
2019-01-18T01:00:45.088Z,16.00
2019-01-18T01:01:55.443Z,16.00
2019-01-18T01:02:45.045Z,16.00
2019-01-18T01:03:45.041Z,16.00
2019-01-18T01:04:45.032Z,16.00
2019-01-18T01:05:45.018Z,16.00
2019-01-18T01:06:45.203Z,16.00
2019-01-18T01:07:44.998Z,16.00
2019-01-18T01:08:44.985Z,16.00
2019-01-18T01:09:44.998Z,16.00
2019-01-18T01:10:44.971Z,16.00
2019-01-18T01:11:44.963Z,16.00
2019-01-18T01:12:44.990Z,16.00
2019-01-18T01:13:44.944Z,16.00
2019-01-18T01:14:45.807Z,16.00
2019-01-18T01:15:44.917Z,16.00
2019-01-18T01:16:44.907Z,16.00
2019-01-18T01:17:44.894Z,16.00
2019-01-18T01:18:44.911Z,16.00
2019-01-18T01:19:44.880Z,16.00
2019-01-18T01:20:44.887Z,16.00
2019-01-18T01:21:44.861Z,16.00
2019-01-18T01:22:44.846Z,16.00
2019-01-18T01:23:44.842Z,16.00
2019-01-18T01:24:44.862Z,16.00
2019-01-18T01:25:44.817Z,16.00
2019-01-18T01:26:44.823Z,16.00
2019-01-18T01:27:44.800Z,16.00
2019-01-18T01:28:44.787Z,16.00
2019-01-18T01:29:44.777Z,16.00
2019-01-18T01:30:44.784Z,16.00
2019-01-18T01:31:44.754Z,16.00
2019-01-18T01:32:54.933Z,16.00
2019-01-18T01:33:44.740Z,16.00
2019-01-18T01:34:44.735Z,16.00
2019-01-18T01:35:44.720Z,16.00
2019-01-18T01:36:44.736Z,16.00
2019-01-18T01:37:44.727Z,16.00
2019-01-18T01:38:44.691Z,16.00
2019-01-18T01:39:44.680Z,16.00
2019-01-18T01:40:44.684Z,16.00
2019-01-18T01:41:44.660Z,16.00
2019-01-18T01:42:44.681Z,16.00
2019-01-18T01:43:44.640Z,16.00
2019-01-18T01:44:44.624Z,16.00
2019-01-18T01:45:44.641Z,16.00
2019-01-18T01:46:44.606Z,16.00
2019-01-18T01:47:44.594Z,16.00
2019-01-18T01:48:44.769Z,16.00
2019-01-18T01:49:44.578Z,16.00
2019-01-18T01:50:44.571Z,16.00
2019-01-18T01:51:44.574Z,16.00
2019-01-18T01:52:44.542Z,16.00
2019-01-18T01:53:44.536Z,16.00
2019-01-18T01:54:44.567Z,16.00
2019-01-18T01:55:44.518Z,16.00
2019-01-18T01:56:44.509Z,16.00
2019-01-18T01:57:44.517Z,16.00
2019-01-18T01:58:44.485Z,16.00
2019-01-18T01:59:49.829Z,16.00
2019-01-18T02:00:45.507Z,16.00
2019-01-18T02:01:44.459Z,16.00
2019-01-18T02:02:44.445Z,16.00
2019-01-18T02:03:54.831Z,16.00
2019-01-18T02:04:44.425Z,16.00
2019-01-18T02:05:44.412Z,16.00
2019-01-18T02:06:44.582Z,16.00
2019-01-18T02:07:44.393Z,16.00
2019-01-18T02:08:44.404Z,16.00
2019-01-18T02:09:44.373Z,16.00
2019-01-18T02:10:44.379Z,16.00
2019-01-18T02:11:44.380Z,16.00
2019-01-18T02:12:44.379Z,16.00
2019-01-18T02:13:44.337Z,16.00
2019-01-18T02:14:44.329Z,16.00
2019-01-18T02:15:44.315Z,16.00
2019-01-18T02:16:44.332Z,16.00
2019-01-18T02:17:44.292Z,16.00
2019-01-18T02:18:44.319Z,16.00
2019-01-18T02:19:44.273Z,16.00
2019-01-18T02:20:44.265Z,16.00
2019-01-18T02:21:44.262Z,16.00
2019-01-18T02:22:44.260Z,16.00
2019-01-18T02:23:44.231Z,16.00
2019-01-18T02:24:44.263Z,16.00
2019-01-18T02:25:44.216Z,16.00
2019-01-18T02:26:44.201Z,16.00
2019-01-18T02:27:44.193Z,16.00
2019-01-18T02:28:44.206Z,16.00
2019-01-18T02:29:44.178Z,16.00
2019-01-18T02:30:44.201Z,16.00
2019-01-18T02:31:44.157Z,16.00
2019-01-18T02:32:44.207Z,16.00
2019-01-18T02:33:44.130Z,16.00
2019-01-18T02:34:54.574Z,16.00
2019-01-18T02:35:44.116Z,16.00
2019-01-18T02:36:44.175Z,16.00
2019-01-18T02:37:44.095Z,16.00
2019-01-18T02:38:44.086Z,16.00
2019-01-18T02:39:44.098Z,16.00
2019-01-18T02:40:44.059Z,16.00
2019-01-18T02:41:44.058Z,16.00
2019-01-18T02:42:44.106Z,16.00
2019-01-18T02:43:44.036Z,16.00
2019-01-18T02:44:44.023Z,16.00
2019-01-18T02:45:44.038Z,16.00
2019-01-18T02:46:44.013Z,16.00
2019-01-18T02:47:43.992Z,16.00
2019-01-18T02:48:44.048Z,16.00
2019-01-18T02:49:43.973Z,16.00
2019-01-18T02:50:43.962Z,16.00
2019-01-18T02:51:43.956Z,16.00
2019-01-18T02:52:43.948Z,16.00
2019-01-18T02:53:43.956Z,16.00
2019-01-18T02:54:43.961Z,16.00
2019-01-18T02:55:43.908Z,16.00
2019-01-18T02:56:43.900Z,16.00
2019-01-18T02:57:43.893Z,16.00
2019-01-18T02:58:43.883Z,16.00
2019-01-18T02:59:43.905Z,16.00
2019-01-18T03:00:44.071Z,16.00
2019-01-18T03:01:43.856Z,16.00
2019-01-18T03:02:43.839Z,16.00
2019-01-18T03:03:43.831Z,16.00
2019-01-18T03:04:43.818Z,16.00
2019-01-18T03:05:53.925Z,16.00
2019-01-18T03:06:43.807Z,16.00
2019-01-18T03:07:43.792Z,16.00
2019-01-18T03:08:43.783Z,16.00
2019-01-18T03:09:43.779Z,16.00
2019-01-18T03:10:43.762Z,16.00
2019-01-18T03:11:43.916Z,16.00
2019-01-18T03:12:43.745Z,16.00
2019-01-18T03:13:43.733Z,16.00
2019-01-18T03:14:43.722Z,16.00
2019-01-18T03:15:43.710Z,16.00
2019-01-18T03:16:43.699Z,16.00
2019-01-18T03:17:43.749Z,16.00
2019-01-18T03:18:43.679Z,16.00
2019-01-18T03:19:43.681Z,16.00
2019-01-18T03:20:43.658Z,16.00
2019-01-18T03:21:43.651Z,16.00
2019-01-18T03:22:43.640Z,16.00
2019-01-18T03:23:43.677Z,16.00
2019-01-18T03:24:43.616Z,16.00
2019-01-18T03:25:43.606Z,16.00
2019-01-18T03:26:43.602Z,16.00
2019-01-18T03:27:43.586Z,16.00
2019-01-18T03:28:43.581Z,16.00
2019-01-18T03:29:43.607Z,16.00
2019-01-18T03:30:43.568Z,16.00
2019-01-18T03:31:43.550Z,16.00
2019-01-18T03:32:43.597Z,16.00
2019-01-18T03:33:43.530Z,16.00
2019-01-18T03:34:43.520Z,16.00
2019-01-18T03:35:43.543Z,16.00
2019-01-18T03:36:55.112Z,16.00
2019-01-18T03:37:43.486Z,16.00
2019-01-18T03:38:43.480Z,16.00
2019-01-18T03:39:43.474Z,16.00
2019-01-18T03:40:43.470Z,16.00
2019-01-18T03:41:43.474Z,16.00
2019-01-18T03:42:43.441Z,16.00
2019-01-18T03:43:43.461Z,16.00
2019-01-18T03:44:43.423Z,16.00
2019-01-18T03:45:43.412Z,16.00
2019-01-18T03:46:43.402Z,16.00
2019-01-18T03:47:43.569Z,16.00
2019-01-18T03:48:43.377Z,16.00
2019-01-18T03:49:44.378Z,16.00
2019-01-18T03:50:43.358Z,16.00
2019-01-18T03:51:43.353Z,16.00
2019-01-18T03:52:43.341Z,16.00
2019-01-18T03:53:43.365Z,16.00
2019-01-18T03:54:43.323Z,16.00
2019-01-18T03:55:43.312Z,16.00
2019-01-18T03:56:43.325Z,16.00
2019-01-18T03:57:43.292Z,16.00
2019-01-18T03:58:43.279Z,16.00
2019-01-18T03:59:43.311Z,16.00
2019-01-18T04:00:43.256Z,16.00
2019-01-18T04:01:43.246Z,16.00
2019-01-18T04:02:43.240Z,16.00
2019-01-18T04:03:43.263Z,16.00
2019-01-18T04:04:43.217Z,16.00
2019-01-18T04:05:43.257Z,16.00
2019-01-18T04:06:43.194Z,16.00
2019-01-18T04:07:53.981Z,16.00
2019-01-18T04:08:43.182Z,16.00
2019-01-18T04:09:43.166Z,16.00
2019-01-18T04:10:43.161Z,16.00
2019-01-18T04:11:43.181Z,16.00
2019-01-18T04:12:43.139Z,16.00
2019-01-18T04:13:43.129Z,16.00
2019-01-18T04:14:43.146Z,16.00
2019-01-18T04:15:43.109Z,16.00
2019-01-18T04:16:43.103Z,16.00
2019-01-18T04:17:43.110Z,16.00
2019-01-18T04:18:43.081Z,16.00
2019-01-18T04:19:43.086Z,16.00
2019-01-18T04:20:43.090Z,16.00
2019-01-18T04:21:43.046Z,16.00
2019-01-18T04:22:43.036Z,16.00
2019-01-18T04:23:43.131Z,16.00
2019-01-18T04:24:43.021Z,16.00
2019-01-18T04:25:43.028Z,16.00
2019-01-18T04:26:42.998Z,16.00
2019-01-18T04:27:42.989Z,16.00
2019-01-18T04:28:42.978Z,16.00
2019-01-18T04:29:42.987Z,16.00
2019-01-18T04:30:42.957Z,16.00
2019-01-18T04:31:42.974Z,16.00
2019-01-18T04:32:43.887Z,16.00
2019-01-18T04:33:42.932Z,16.00
2019-01-18T04:34:42.919Z,16.00
2019-01-18T04:35:42.949Z,16.00
2019-01-18T04:36:42.902Z,16.00
2019-01-18T04:37:42.926Z,16.00
2019-01-18T04:38:53.263Z,16.00
2019-01-18T04:39:42.869Z,16.00
2019-01-18T04:40:42.863Z,16.00
2019-01-18T04:41:42.893Z,16.00
2019-01-18T04:42:42.844Z,16.00
2019-01-18T04:43:42.850Z,16.00
2019-01-18T04:44:42.820Z,16.00
2019-01-18T04:45:42.817Z,16.00
2019-01-18T04:46:42.823Z,20.00
2019-01-18T04:47:42.961Z,16.00
2019-01-18T04:48:42.787Z,16.00
2019-01-18T04:49:42.771Z,16.00
2019-01-18T04:50:42.759Z,16.00
2019-01-18T04:51:42.783Z,16.00
2019-01-18T04:52:42.738Z,16.00
2019-01-18T04:53:42.775Z,16.00
2019-01-18T04:54:42.726Z,16.00
2019-01-18T04:55:42.712Z,16.00
2019-01-18T04:56:42.706Z,16.00
2019-01-18T04:57:42.713Z,16.00
2019-01-18T04:58:42.686Z,16.00
2019-01-18T04:59:42.849Z,16.00
2019-01-18T05:00:42.659Z,16.00
2019-01-18T05:01:42.652Z,16.00
2019-01-18T05:02:42.645Z,16.00
2019-01-18T05:03:42.645Z,16.00
2019-01-18T05:04:42.621Z,16.00
2019-01-18T05:05:42.647Z,16.00
2019-01-18T05:06:42.605Z,16.00
2019-01-18T05:07:42.596Z,16.00
2019-01-18T05:08:42.586Z,16.00
2019-01-18T05:09:52.738Z,16.00
2019-01-18T05:10:42.560Z,16.00
2019-01-18T05:11:42.591Z,16.00
2019-01-18T05:12:42.550Z,16.00
2019-01-18T05:13:42.533Z,16.00
2019-01-18T05:14:42.523Z,16.00
2019-01-18T05:15:42.507Z,16.00
2019-01-18T05:16:42.501Z,16.00
2019-01-18T05:17:42.669Z,16.00
2019-01-18T05:18:42.477Z,16.00
2019-01-18T05:19:42.470Z,16.00
2019-01-18T05:20:42.457Z,16.00
2019-01-18T05:21:42.448Z,16.00
2019-01-18T05:22:42.453Z,16.00
2019-01-18T05:23:42.466Z,16.00
2019-01-18T05:24:49.074Z,16.00
2019-01-18T05:25:43.411Z,16.00
2019-01-18T05:26:42.402Z,16.00
2019-01-18T05:27:42.393Z,16.00
2019-01-18T05:28:42.388Z,16.00
2019-01-18T05:29:42.408Z,16.00
2019-01-18T05:30:47.526Z,16.00
2019-01-18T05:31:43.349Z,16.00
2019-01-18T05:32:42.343Z,16.00
2019-01-18T05:33:42.327Z,16.00
2019-01-18T05:34:42.325Z,16.00
2019-01-18T05:35:42.348Z,16.00
2019-01-18T05:36:42.300Z,16.00
2019-01-18T05:37:42.289Z,16.00
2019-01-18T05:38:42.277Z,16.00
2019-01-18T05:39:42.273Z,16.00
2019-01-18T05:40:54.518Z,16.00
2019-01-18T05:41:42.246Z,16.00
2019-01-18T05:42:42.238Z,20.00
2019-01-18T05:43:42.234Z,20.00
2019-01-18T05:44:42.226Z,20.00
2019-01-18T05:45:42.224Z,20.00
2019-01-18T05:46:42.218Z,16.00
2019-01-18T05:47:42.191Z,16.00
2019-01-18T05:48:42.186Z,16.00
2019-01-18T05:49:42.173Z,16.00
2019-01-18T05:50:42.161Z,16.00
2019-01-18T05:51:42.145Z,16.00
2019-01-18T05:52:42.178Z,20.00
2019-01-18T05:53:42.130Z,20.00
2019-01-18T05:54:42.143Z,20.00
2019-01-18T05:55:42.110Z,20.00
2019-01-18T05:56:42.097Z,20.00
2019-01-18T05:57:42.088Z,20.00
2019-01-18T05:58:42.125Z,16.00
2019-01-18T05:59:42.068Z,20.00
2019-01-18T06:00:42.062Z,20.00
2019-01-18T06:01:42.048Z,16.00
2019-01-18T06:02:42.041Z,20.00
2019-01-18T06:03:42.027Z,16.00
2019-01-18T06:04:42.063Z,20.00
2019-01-18T06:05:42.015Z,20.00
2019-01-18T06:06:42.012Z,20.00
2019-01-18T06:07:41.991Z,20.00
2019-01-18T06:08:41.988Z,24.00
2019-01-18T06:09:41.966Z,20.00
2019-01-18T06:10:41.989Z,20.00
2019-01-18T06:11:52.416Z,20.00
2019-01-18T06:12:41.935Z,20.00
2019-01-18T06:13:42.215Z,20.00
2019-01-18T06:14:41.918Z,24.00
2019-01-18T06:15:41.905Z,24.00
2019-01-18T06:16:42.010Z,28.00
2019-01-18T06:17:48.926Z,28.00
2019-01-18T06:18:41.879Z,28.00
2019-01-18T06:19:48.851Z,32.00
2019-01-18T06:20:41.856Z,32.00
2019-01-18T06:21:41.851Z,36.00
2019-01-18T06:22:41.880Z,36.00
2019-01-18T06:23:41.829Z,40.00
2019-01-18T06:24:41.822Z,44.00
2019-01-18T06:25:41.807Z,44.00
2019-01-18T06:26:41.796Z,48.00
2019-01-18T06:27:41.823Z,52.00
2019-01-18T06:28:41.812Z,56.00
2019-01-18T06:29:41.766Z,64.00
2019-01-18T06:30:41.758Z,64.00
2019-01-18T06:31:41.748Z,72.00
2019-01-18T06:32:41.860Z,80.00
2019-01-18T06:33:41.729Z,84.00
2019-01-18T06:34:41.773Z,88.00
2019-01-18T06:35:41.769Z,100.00
2019-01-18T06:36:41.699Z,108.00
2019-01-18T06:37:41.719Z,116.00
2019-01-18T06:38:41.673Z,128.00
2019-01-18T06:39:41.667Z,136.00
2019-01-18T06:40:41.852Z,148.00
2019-01-18T06:41:41.648Z,160.00
2019-01-18T06:42:41.649Z,172.00
2019-01-18T06:43:41.629Z,184.00
2019-01-18T06:44:41.794Z,200.00
2019-01-18T06:45:41.605Z,212.00
2019-01-18T06:46:41.630Z,232.00
2019-01-18T06:47:41.586Z,248.00
2019-01-18T06:48:41.613Z,264.00
2019-01-18T06:49:42.493Z,284.00
2019-01-18T06:50:52.172Z,300.00
2019-01-18T06:51:41.546Z,320.00
2019-01-18T06:52:41.576Z,344.00
2019-01-18T06:53:41.611Z,364.00
2019-01-18T06:54:41.594Z,380.00
2019-01-18T06:55:41.525Z,408.00
2019-01-18T06:56:41.520Z,436.00
2019-01-18T06:57:41.499Z,464.00
2019-01-18T06:58:41.490Z,488.00
2019-01-18T06:59:41.849Z,516.00
2019-01-18T07:00:41.639Z,544.00
2019-01-18T07:01:41.464Z,572.00
2019-01-18T07:02:41.466Z,608.00
2019-01-18T07:03:41.435Z,640.00
2019-01-18T07:04:42.409Z,660.00
2019-01-18T07:05:41.422Z,696.00
2019-01-18T07:06:41.467Z,728.00
2019-01-18T07:07:41.383Z,764.00
2019-01-18T07:08:41.386Z,808.00
2019-01-18T07:09:41.368Z,844.00
2019-01-18T07:10:41.391Z,884.00
2019-01-18T07:11:41.347Z,924.00
2019-01-18T07:12:42.002Z,968.00
2019-01-18T07:13:41.323Z,1000.00
2019-01-18T07:14:41.314Z,1052.00
2019-01-18T07:15:41.310Z,1088.00
2019-01-18T07:16:41.336Z,1132.00
2019-01-18T07:17:41.291Z,1176.00
2019-01-18T07:18:41.278Z,1220.00
2019-01-18T07:19:41.264Z,1268.00
2019-01-18T07:20:41.253Z,1308.00
2019-01-18T07:21:51.565Z,1352.00
2019-01-18T07:22:41.238Z,1404.00
2019-01-18T07:23:41.222Z,1452.00
2019-01-18T07:24:41.220Z,1496.00
2019-01-18T07:25:41.232Z,1548.00
2019-01-18T07:26:42.031Z,1600.00
2019-01-18T07:27:41.241Z,1648.00
2019-01-18T07:28:41.173Z,1700.00
2019-01-18T07:29:41.166Z,1748.00
2019-01-18T07:30:41.170Z,1792.00
2019-01-18T07:31:41.146Z,1832.00
2019-01-18T07:32:41.141Z,1888.00
2019-01-18T07:33:41.152Z,1956.00
2019-01-18T07:34:41.162Z,1988.00
2019-01-18T07:35:41.103Z,2040.00
2019-01-18T07:36:41.090Z,2080.00
2019-01-18T07:37:41.083Z,2156.00
2019-01-18T07:38:41.070Z,2216.00
2019-01-18T07:39:41.105Z,2260.00
2019-01-18T07:40:41.057Z,2324.00
2019-01-18T07:41:41.047Z,2364.00
2019-01-18T07:42:41.030Z,2384.00
2019-01-18T07:43:41.019Z,2460.00
2019-01-18T07:44:41.011Z,2504.00
2019-01-18T07:45:41.048Z,2556.00
2019-01-18T07:46:41.100Z,2604.00
2019-01-18T07:47:40.983Z,2652.00
2019-01-18T07:48:40.970Z,2720.00
2019-01-18T07:49:40.967Z,2760.00
2019-01-18T07:50:40.952Z,2788.00
2019-01-18T07:51:40.987Z,2864.00
2019-01-18T07:52:51.704Z,2904.00
2019-01-18T07:53:40.927Z,2948.00
2019-01-18T07:54:40.911Z,3032.00
2019-01-18T07:55:40.973Z,3080.00
2019-01-18T07:56:40.888Z,3120.00
2019-01-18T07:57:40.917Z,3180.00
2019-01-18T07:58:40.879Z,3220.00
2019-01-18T07:59:40.858Z,3268.00
2019-01-18T08:00:40.853Z,3332.00
2019-01-18T08:01:40.869Z,3360.00
2019-01-18T08:02:40.830Z,3400.00
2019-01-18T08:03:40.859Z,3436.00
2019-01-18T08:04:40.811Z,3488.00
2019-01-18T08:05:40.802Z,3524.00
2019-01-18T08:06:40.870Z,3560.00
2019-01-18T08:07:40.780Z,3624.00
2019-01-18T08:08:40.772Z,3656.00
2019-01-18T08:09:40.937Z,3716.00
2019-01-18T08:10:40.749Z,3776.00
2019-01-18T08:11:40.737Z,3848.00
2019-01-18T08:12:40.731Z,3892.00
2019-01-18T08:13:40.728Z,3940.00
2019-01-18T08:14:40.713Z,3988.00
2019-01-18T08:15:40.743Z,4032.00
2019-01-18T08:16:40.691Z,4096.00
2019-01-18T08:17:40.680Z,4140.00
2019-01-18T08:18:40.682Z,4192.00
2019-01-18T08:19:40.665Z,4244.00
2019-01-18T08:20:40.668Z,4276.00
2019-01-18T08:21:40.681Z,4324.00
2019-01-18T08:22:40.636Z,4320.00
2019-01-18T08:23:50.734Z,4436.00
2019-01-18T08:24:40.737Z,4492.00
2019-01-18T08:25:40.602Z,4596.00
2019-01-18T08:26:40.589Z,4636.00
2019-01-18T08:27:40.618Z,4712.00
2019-01-18T08:28:40.601Z,4780.00
2019-01-18T08:29:40.560Z,4816.00
2019-01-18T08:30:40.580Z,4868.00
2019-01-18T08:31:40.900Z,4916.00
2019-01-18T08:32:40.530Z,4992.00
2019-01-18T08:33:40.592Z,5032.00
2019-01-18T08:34:40.514Z,5100.00
2019-01-18T08:35:40.504Z,5124.00
2019-01-18T08:36:40.498Z,5232.00
2019-01-18T08:37:40.488Z,5172.00
2019-01-18T08:38:40.466Z,5396.00
2019-01-18T08:39:40.502Z,5388.00
2019-01-18T08:40:40.450Z,5400.00
2019-01-18T08:41:40.437Z,5436.00
2019-01-18T08:42:40.440Z,5472.00
2019-01-18T08:43:40.417Z,5512.00
2019-01-18T08:44:40.412Z,5584.00
2019-01-18T08:45:40.440Z,5644.00
2019-01-18T08:46:40.394Z,5720.00
2019-01-18T08:47:40.378Z,5784.00
2019-01-18T08:48:40.369Z,5828.00
2019-01-18T08:49:40.361Z,5880.00
2019-01-18T08:50:40.358Z,5952.00
2019-01-18T08:51:40.379Z,6040.00
2019-01-18T08:52:40.327Z,6048.00
2019-01-18T08:53:40.318Z,6048.00
2019-01-18T08:54:51.101Z,6060.00
2019-01-18T08:55:40.303Z,6092.00
2019-01-18T08:56:40.295Z,6104.00
2019-01-18T08:57:40.334Z,6136.00
2019-01-18T08:58:40.266Z,6216.00
2019-01-18T08:59:40.261Z,6188.00
2019-01-18T09:00:40.251Z,6268.00
2019-01-18T09:01:40.242Z,6348.00
2019-01-18T09:02:40.230Z,6416.00
2019-01-18T09:03:40.234Z,6480.00
2019-01-18T09:04:40.212Z,6564.00
2019-01-18T09:05:40.207Z,6564.00
2019-01-18T09:06:40.195Z,6632.00
2019-01-18T09:07:40.181Z,6716.00
2019-01-18T09:08:40.174Z,6752.00
2019-01-18T09:09:40.192Z,6736.00
2019-01-18T09:10:40.154Z,6852.00
2019-01-18T09:11:40.139Z,6928.00
2019-01-18T09:12:40.149Z,7044.00
2019-01-18T09:13:40.132Z,7088.00
2019-01-18T09:14:40.118Z,7164.00
2019-01-18T09:15:40.131Z,7164.00
2019-01-18T09:16:40.093Z,7224.00
2019-01-18T09:17:40.077Z,7260.00
2019-01-18T09:18:40.067Z,7356.00
2019-01-18T09:19:40.072Z,7472.00
2019-01-18T09:20:40.059Z,7512.00
2019-01-18T09:21:40.079Z,7448.00
2019-01-18T09:22:40.077Z,7560.00
2019-01-18T09:23:40.016Z,7660.00
2019-01-18T09:24:40.022Z,7652.00
2019-01-18T09:25:49.932Z,7708.00
2019-01-18T09:26:39.982Z,8000.00
2019-01-18T09:27:40.110Z,7800.00
2019-01-18T09:28:39.962Z,7912.00
2019-01-18T09:29:39.980Z,7888.00
2019-01-18T09:30:39.973Z,7904.00
2019-01-18T09:31:42.629Z,8040.00
2019-01-18T09:32:39.925Z,8076.00
2019-01-18T09:33:39.963Z,8116.00
2019-01-18T09:34:39.902Z,8172.00
2019-01-18T09:35:39.892Z,8260.00
2019-01-18T09:36:39.887Z,8400.00
2019-01-18T09:37:39.877Z,8468.00
2019-01-18T09:38:39.865Z,8656.00
2019-01-18T09:39:39.912Z,8560.00
2019-01-18T09:40:39.845Z,8616.00
2019-01-18T09:41:39.835Z,8700.00
2019-01-18T09:42:39.821Z,8904.00
2019-01-18T09:43:39.816Z,8992.00
2019-01-18T09:44:39.807Z,9040.00
2019-01-18T09:45:39.831Z,9040.00
2019-01-18T09:46:39.793Z,9104.00
2019-01-18T09:47:39.775Z,9132.00
2019-01-18T09:48:39.768Z,9104.00
2019-01-18T09:49:39.762Z,9220.00
2019-01-18T09:50:39.742Z,9312.00
2019-01-18T09:51:39.908Z,8684.00
2019-01-18T09:52:39.738Z,9484.00
2019-01-18T09:53:39.715Z,9192.00
2019-01-18T09:54:39.708Z,9632.00
2019-01-18T09:55:39.695Z,9412.00
2019-01-18T09:56:50.623Z,9520.00
2019-01-18T09:57:39.673Z,9196.00
2019-01-18T09:58:39.671Z,9640.00
2019-01-18T09:59:39.660Z,9824.00
2019-01-18T10:00:39.649Z,9788.00
2019-01-18T10:01:39.738Z,9304.00
2019-01-18T10:02:39.891Z,11660.00
2019-01-18T10:03:39.620Z,10408.00
2019-01-18T10:04:39.658Z,16416.00
2019-01-18T10:05:39.594Z,24800.00
2019-01-18T10:06:39.583Z,12348.00
2019-01-18T10:07:39.619Z,38112.00
2019-01-18T10:08:39.600Z,12420.00
2019-01-18T10:09:39.556Z,46976.00
2019-01-18T10:10:39.538Z,40512.00
2019-01-18T10:11:39.536Z,47616.00
2019-01-18T10:12:39.523Z,46592.00
2019-01-18T10:13:39.510Z,47264.00
2019-01-18T10:14:39.545Z,48032.00
2019-01-18T10:15:39.490Z,46336.00
2019-01-18T10:16:39.484Z,45728.00
2019-01-18T10:17:39.472Z,44096.00
2019-01-18T10:18:39.476Z,43872.00
2019-01-18T10:19:39.450Z,38848.00
2019-01-18T10:20:39.481Z,24800.00
2019-01-18T10:21:39.431Z,44736.00
2019-01-18T10:22:39.420Z,42528.00
2019-01-18T10:23:39.412Z,46048.00
2019-01-18T10:24:39.398Z,43744.00
2019-01-18T10:25:39.386Z,41504.00
2019-01-18T10:26:39.408Z,38016.00
2019-01-18T10:27:50.214Z,27680.00
2019-01-18T10:28:39.351Z,44032.00
2019-01-18T10:29:39.337Z,38496.00
2019-01-18T10:30:39.332Z,44128.00
2019-01-18T10:31:39.321Z,42432.00
2019-01-18T10:32:39.349Z,44576.00
2019-01-18T10:33:39.295Z,40960.00
2019-01-18T10:34:40.100Z,44096.00
2019-01-18T10:35:39.286Z,40800.00
2019-01-18T10:36:39.265Z,42304.00
2019-01-18T10:37:39.257Z,45472.00
2019-01-18T10:38:39.470Z,42272.00
2019-01-18T10:39:39.239Z,45184.00
2019-01-18T10:40:46.544Z,48128.00
2019-01-18T10:41:39.211Z,45920.00
2019-01-18T10:42:39.198Z,49984.00
2019-01-18T10:43:39.189Z,48128.00
2019-01-18T10:44:39.475Z,47552.00
2019-01-18T10:45:39.170Z,45056.00
2019-01-18T10:46:39.159Z,44768.00
2019-01-18T10:47:39.182Z,44320.00
2019-01-18T10:48:39.139Z,42272.00
2019-01-18T10:49:39.131Z,39456.00
2019-01-18T10:50:39.153Z,37632.00
2019-01-18T10:51:39.118Z,39520.00
2019-01-18T10:52:39.097Z,37344.00
2019-01-18T10:53:39.084Z,38528.00
2019-01-18T10:54:39.080Z,38208.00
2019-01-18T10:55:47.210Z,42400.00
2019-01-18T10:56:39.048Z,44288.00
2019-01-18T10:57:39.038Z,45408.00
2019-01-18T10:58:39.028Z,44736.00
2019-01-18T10:59:39.029Z,41856.00
2019-01-18T11:00:39.007Z,41216.00
2019-01-18T11:01:39.106Z,39424.00
2019-01-18T11:02:38.991Z,35744.00
2019-01-18T11:03:38.969Z,31808.00
2019-01-18T11:04:38.969Z,34784.00
2019-01-18T11:05:38.956Z,35936.00
2019-01-18T11:06:38.942Z,37856.00
2019-01-18T11:07:39.108Z,39968.00
2019-01-18T11:08:39.655Z,41952.00
2019-01-18T11:09:38.905Z,40064.00
2019-01-18T11:10:38.898Z,43136.00
2019-01-18T11:11:38.888Z,37632.00
2019-01-18T11:12:38.875Z,19456.00
2019-01-18T11:13:38.966Z,20704.00
2019-01-18T11:14:38.853Z,37504.00
2019-01-18T11:15:38.852Z,41152.00
2019-01-18T11:16:38.832Z,41152.00
2019-01-18T11:17:38.817Z,43232.00
2019-01-18T11:18:38.830Z,46720.00
2019-01-18T11:19:38.847Z,49184.00
2019-01-18T11:20:38.785Z,48064.00
2019-01-18T11:21:38.773Z,45472.00
2019-01-18T11:22:38.769Z,35936.00
2019-01-18T11:23:38.771Z,27264.00
2019-01-18T11:24:38.748Z,37920.00
2019-01-18T11:25:38.775Z,45088.00
2019-01-18T11:26:48.548Z,43904.00
2019-01-18T11:27:38.741Z,43936.00
2019-01-18T11:28:38.704Z,45056.00
2019-01-18T11:29:38.690Z,45216.00
2019-01-18T11:30:38.681Z,43296.00
2019-01-18T11:31:38.730Z,42464.00
2019-01-18T11:32:38.652Z,41344.00
2019-01-18T11:33:38.667Z,40448.00
2019-01-18T11:34:38.636Z,40320.00
2019-01-18T11:35:38.666Z,40384.00
2019-01-18T11:36:38.615Z,41440.00
2019-01-18T11:37:38.620Z,42528.00
2019-01-18T11:39:47.810Z,38272.00
2019-01-18T11:40:47.777Z,38112.00
2019-01-18T11:41:47.743Z,36608.00
2019-01-18T11:42:47.737Z,36704.00
2019-01-18T11:43:47.729Z,38944.00
2019-01-18T11:44:47.718Z,36704.00
2019-01-18T11:45:47.736Z,36192.00
2019-01-18T11:46:47.691Z,35712.00
2019-01-18T11:47:47.682Z,33024.00
2019-01-18T11:48:50.347Z,33056.00
2019-01-18T11:49:47.661Z,36544.00
2019-01-18T11:50:47.653Z,33600.00
2019-01-18T11:51:47.678Z,33248.00
2019-01-18T11:52:48.528Z,35296.00
2019-01-18T11:53:47.614Z,29536.00
2019-01-18T11:54:47.607Z,30624.00
2019-01-18T11:55:47.594Z,34560.00
2019-01-18T11:56:47.608Z,28608.00
2019-01-18T11:57:47.608Z,35232.00
2019-01-18T11:58:47.562Z,30240.00
2019-01-18T11:59:49.630Z,25376.00
2019-01-18T12:00:47.547Z,31232.00
2019-01-18T12:01:47.542Z,22432.00
2019-01-18T12:02:47.520Z,31296.00
2019-01-18T12:03:47.551Z,26688.00
2019-01-18T12:04:47.510Z,23072.00
2019-01-18T12:05:47.497Z,27360.00
2019-01-18T12:06:47.514Z,25440.00
2019-01-18T12:07:47.521Z,27008.00
2019-01-18T12:08:47.464Z,22752.00
2019-01-18T12:09:54.617Z,27232.00
2019-01-18T12:10:47.437Z,24736.00
2019-01-18T12:11:47.422Z,23040.00
2019-01-18T12:12:47.411Z,21472.00
2019-01-18T12:13:47.401Z,24096.00
2019-01-18T12:14:47.390Z,20352.00
2019-01-18T12:15:47.417Z,15072.00
2019-01-18T12:16:47.367Z,13664.00
2019-01-18T12:17:47.382Z,14784.00
2019-01-18T12:18:47.349Z,15904.00
2019-01-18T12:19:47.341Z,16896.00
2019-01-18T12:20:47.326Z,18944.00
2019-01-18T12:21:47.702Z,19456.00
2019-01-18T12:22:47.305Z,17952.00
2019-01-18T12:23:47.294Z,16064.00
2019-01-18T12:24:47.280Z,15328.00
2019-01-18T12:25:47.283Z,15040.00
2019-01-18T12:26:47.263Z,16608.00
2019-01-18T12:27:47.289Z,17184.00